Lofthouse, United Kingdom
Current Conditions -  °F | °C
As of 10:20 PM on Monday 20 Oct 2014 (Local Time) from EGNM Reporting Station
Scattered Clouds Scattered Clouds  
Wind Chill: 52°   Ceiling: Unl
Heat Index: 52°   Visibility: 6mi
Dew Point: 50°   Wind: 10mph
Humidity: 94%   Direction: 220°SW
Pressure: 29.71"   Gusts: NA
Location:  53.73°N, 1.5°W
Report Text: EGNM 202120Z 22009KT 190V260 9999 FEW010 SCT014 11/10 Q1006
Loading
Personal Weather Stations






























Interactive Weather Map
Tropical Storm Tracking
New forecast layout! Learn more

10-Day Weather Forecast

Advertisements
Track Severe Weather on mobile